createdAt,value
2019-01-21T00:01:01.675Z,-1.03
2019-01-21T00:06:04.147Z,-1.05
2019-01-21T00:11:06.622Z,-1.08
2019-01-21T00:16:09.082Z,-1.04
2019-01-21T00:21:11.553Z,-1.13
2019-01-21T00:26:14.009Z,-1.45
2019-01-21T00:31:16.465Z,-1.36
2019-01-21T00:36:19.045Z,-1.35
2019-01-21T00:41:21.413Z,-1.26
2019-01-21T00:46:23.872Z,-1.20
2019-01-21T00:51:26.337Z,-1.20
2019-01-21T00:56:28.798Z,-1.20
2019-01-21T01:01:31.264Z,-1.25
2019-01-21T01:06:33.753Z,-1.16
2019-01-21T01:11:36.226Z,-1.24
2019-01-21T01:16:38.684Z,-1.24
2019-01-21T01:21:41.152Z,-1.32
2019-01-21T01:26:43.733Z,-1.25
2019-01-21T01:31:46.205Z,-1.25
2019-01-21T01:36:48.665Z,-1.25
2019-01-21T01:41:51.139Z,-1.14
2019-01-21T01:46:53.609Z,-1.15
2019-01-21T01:51:56.075Z,-1.27
2019-01-21T01:56:58.538Z,-1.25
2019-01-21T02:02:00.992Z,-1.24
2019-01-21T02:07:03.443Z,-1.23
2019-01-21T02:12:05.904Z,-1.12
2019-01-21T02:17:08.361Z,-1.11
2019-01-21T02:22:10.818Z,-1.26
2019-01-21T02:27:13.286Z,-1.25
2019-01-21T02:32:27.970Z,-1.21
2019-01-21T02:37:36.149Z,-1.25
2019-01-21T02:42:59.798Z,-1.33
2019-01-21T02:48:23.553Z,-1.30
2019-01-21T02:53:38.097Z,-1.40
2019-01-21T02:58:49.558Z,-1.40
2019-01-21T03:03:54.962Z,-1.47
2019-01-21T03:09:09.201Z,-1.53
2019-01-21T03:14:11.664Z,-1.64
2019-01-21T03:19:47.109Z,-1.58
2019-01-21T03:25:00.765Z,-1.54
2019-01-21T03:30:15.117Z,-1.70
2019-01-21T03:35:54.478Z,-1.47
2019-01-21T03:41:08.921Z,-1.57
2019-01-21T03:46:35.489Z,-1.61
2019-01-21T03:52:14.809Z,-1.88
2019-01-21T03:57:17.267Z,-1.99
2019-01-21T04:02:34.489Z,-1.99
2019-01-21T04:07:49.046Z,-1.95
2019-01-21T04:12:54.155Z,-2.16
2019-01-21T04:17:56.621Z,-2.13
2019-01-21T04:23:01.715Z,-2.09
2019-01-21T04:28:07.269Z,-2.18
2019-01-21T04:33:27.821Z,-2.44
2019-01-21T04:38:45.295Z,-2.51
2019-01-21T04:43:53.652Z,-2.59
2019-01-21T04:49:13.844Z,-2.73
2019-01-21T04:54:18.970Z,-2.78
2019-01-21T04:59:21.432Z,-2.79
2019-01-21T05:04:23.905Z,-3.12
2019-01-21T05:09:41.184Z,-3.02
2019-01-21T05:14:52.337Z,-2.89
2019-01-21T05:20:03.513Z,-3.00
2019-01-21T05:25:27.454Z,-3.23
2019-01-21T05:30:48.258Z,-3.14
2019-01-21T05:36:02.638Z,-3.17
2019-01-21T05:41:13.799Z,-3.22
2019-01-21T05:46:25.014Z,-3.31
2019-01-21T05:51:30.161Z,-3.22
2019-01-21T05:56:41.489Z,-3.28
2019-01-21T06:01:59.164Z,-3.23
2019-01-21T06:07:07.380Z,-3.38
2019-01-21T06:12:28.034Z,-3.31
2019-01-21T06:17:36.184Z,-3.49
2019-01-21T06:22:47.768Z,-3.70
2019-01-21T06:28:05.599Z,-3.87
2019-01-21T06:33:26.727Z,-3.77
2019-01-21T06:38:50.741Z,-3.74
2019-01-21T06:44:17.435Z,-3.63
2019-01-21T06:49:34.953Z,-3.86
2019-01-21T06:54:40.335Z,-3.77
2019-01-21T07:00:13.599Z,-3.81
2019-01-21T07:05:37.349Z,-3.82
2019-01-21T07:10:48.907Z,-4.00
2019-01-21T07:15:54.296Z,-4.28
2019-01-21T07:21:18.080Z,-3.97
2019-01-21T07:26:26.308Z,-3.97
2019-01-21T07:31:40.601Z,-3.76
2019-01-21T07:36:58.076Z,-3.75
2019-01-21T07:42:21.856Z,-3.68
2019-01-21T07:47:33.196Z,-3.83
2019-01-21T07:52:38.359Z,-3.71
2019-01-21T07:57:49.799Z,-3.47
2019-01-21T08:02:58.467Z,-3.22
2019-01-21T08:08:03.609Z,-2.99
2019-01-21T08:13:08.738Z,-2.91
2019-01-21T08:18:20.407Z,-2.53
2019-01-21T08:23:30.333Z,-2.31
2019-01-21T08:28:39.880Z,-1.96
2019-01-21T08:34:00.500Z,-1.77
2019-01-21T08:39:08.978Z,-1.42
2019-01-21T08:44:11.580Z,-1.04
2019-01-21T08:49:14.038Z,-0.75
2019-01-21T08:54:16.535Z,-0.61
2019-01-21T08:59:18.989Z,-0.33
2019-01-21T09:04:27.556Z,-0.06
2019-01-21T09:09:35.823Z,0.35
2019-01-21T09:14:38.283Z,0.98
2019-01-21T09:20:02.296Z,1.85
2019-01-21T09:25:07.556Z,2.72
2019-01-21T09:30:15.753Z,3.03
2019-01-21T09:35:43.084Z,2.85
2019-01-21T09:40:45.541Z,2.05
2019-01-21T09:45:50.945Z,1.40
2019-01-21T09:50:53.361Z,1.22
2019-01-21T09:55:55.849Z,1.15
2019-01-21T10:00:58.324Z,1.28
2019-01-21T10:06:00.786Z,1.31
2019-01-21T10:11:22.018Z,1.21
2019-01-21T10:16:30.331Z,1.23
2019-01-21T10:21:53.975Z,1.24
2019-01-21T10:27:14.917Z,1.29
2019-01-21T10:32:26.691Z,1.32
2019-01-21T10:37:47.145Z,1.37
2019-01-21T10:42:58.509Z,1.33
2019-01-21T10:48:31.743Z,1.47
2019-01-21T10:53:43.051Z,1.43
2019-01-21T10:58:57.654Z,1.46
2019-01-21T11:04:18.697Z,1.49
2019-01-21T11:09:42.504Z,1.50
2019-01-21T11:14:47.898Z,1.54
2019-01-21T11:20:08.496Z,1.66
2019-01-21T11:25:32.667Z,1.62
2019-01-21T11:30:47.486Z,1.59
2019-01-21T11:36:20.391Z,1.60
2019-01-21T11:41:28.627Z,1.68
2019-01-21T11:46:43.073Z,1.74
2019-01-21T11:51:54.451Z,1.71
2019-01-21T11:56:56.983Z,1.83
2019-01-21T12:02:26.631Z,1.92
2019-01-21T12:07:53.596Z,1.99
2019-01-21T12:13:14.570Z,2.06
2019-01-21T12:18:29.154Z,2.13
2019-01-21T12:23:40.625Z,2.18
2019-01-21T12:28:55.003Z,2.15
2019-01-21T12:34:00.675Z,2.20
2019-01-21T12:39:09.062Z,2.26
2019-01-21T12:44:38.421Z,2.30
2019-01-21T12:50:11.396Z,2.35
2019-01-21T12:55:16.784Z,2.35
2019-01-21T13:00:34.067Z,2.32
2019-01-21T13:05:36.522Z,2.35
2019-01-21T13:10:42.075Z,2.27
2019-01-21T13:15:59.328Z,2.34
2019-01-21T13:21:04.521Z,2.40
2019-01-21T13:26:24.869Z,2.38
2019-01-21T13:31:57.569Z,2.42
2019-01-21T13:37:08.776Z,2.27
2019-01-21T13:42:11.238Z,2.32
2019-01-21T13:47:40.820Z,2.26
2019-01-21T13:53:01.710Z,2.36
2019-01-21T13:58:22.690Z,2.37
2019-01-21T14:03:30.903Z,2.37
2019-01-21T14:08:42.524Z,2.35
2019-01-21T14:13:53.779Z,2.33
2019-01-21T14:18:56.325Z,2.29
2019-01-21T14:24:29.545Z,2.27
2019-01-21T14:29:46.922Z,2.04
2019-01-21T14:34:55.492Z,2.05
2019-01-21T14:40:00.799Z,2.08
2019-01-21T14:45:24.292Z,2.02
2019-01-21T14:50:32.526Z,1.92
2019-01-21T14:55:34.995Z,1.87
2019-01-21T15:00:52.326Z,1.83
2019-01-21T15:06:03.567Z,1.73
2019-01-21T15:11:27.574Z,1.54
2019-01-21T15:16:57.453Z,1.48
2019-01-21T15:22:08.631Z,1.39
2019-01-21T15:27:19.860Z,1.34
2019-01-21T15:32:28.337Z,1.23
2019-01-21T15:37:45.726Z,1.13
2019-01-21T15:43:12.381Z,0.97
2019-01-21T15:48:35.832Z,0.85
2019-01-21T15:53:56.784Z,0.75
2019-01-21T15:59:08.052Z,0.62
2019-01-21T16:04:10.528Z,0.51
2019-01-21T16:09:27.821Z,0.45
2019-01-21T16:14:30.286Z,0.39
2019-01-21T16:19:32.746Z,0.29
2019-01-21T16:24:44.393Z,0.20
2019-01-21T16:29:49.768Z,0.11
2019-01-21T16:35:10.214Z,0.00
2019-01-21T16:40:24.622Z,-0.08
2019-01-21T16:45:27.117Z,-0.10
2019-01-21T16:50:29.582Z,-0.18
2019-01-21T16:55:32.050Z,-0.22
2019-01-21T17:00:34.516Z,-0.29
2019-01-21T17:05:36.968Z,-0.33
2019-01-21T17:10:39.556Z,-0.41
2019-01-21T17:15:41.900Z,-0.48
2019-01-21T17:20:44.379Z,-0.52
2019-01-21T17:25:46.834Z,-0.68
2019-01-21T17:30:49.304Z,-0.77
2019-01-21T17:35:51.764Z,-0.77
2019-01-21T17:40:54.292Z,-0.82
2019-01-21T17:45:56.733Z,-0.89
2019-01-21T17:50:59.220Z,-1.02
2019-01-21T17:56:01.707Z,-1.14
2019-01-21T18:01:04.160Z,-1.17
2019-01-21T18:06:06.664Z,-1.31
2019-01-21T18:11:09.156Z,-1.39
2019-01-21T18:16:11.643Z,-1.57
2019-01-21T18:21:14.145Z,-1.61
2019-01-21T18:26:16.626Z,-1.55
2019-01-21T18:31:19.116Z,-1.48
2019-01-21T18:36:21.590Z,-1.37
2019-01-21T18:41:24.122Z,-1.56
2019-01-21T18:46:26.675Z,-1.66
2019-01-21T18:51:29.099Z,-1.78
2019-01-21T18:56:31.589Z,-1.83
2019-01-21T19:01:34.064Z,-1.86
2019-01-21T19:06:36.518Z,-1.87
2019-01-21T19:11:38.997Z,-1.88
2019-01-21T19:16:41.520Z,-2.00
2019-01-21T19:21:43.956Z,-2.00
2019-01-21T19:26:46.441Z,-2.07
2019-01-21T19:31:48.915Z,-2.16
2019-01-21T19:36:51.391Z,-2.23
2019-01-21T19:41:53.881Z,-2.24
2019-01-21T19:46:56.357Z,-2.28
2019-01-21T19:52:00.397Z,-2.29
2019-01-21T19:57:01.364Z,-2.42
2019-01-21T20:02:03.840Z,-2.43
2019-01-21T20:07:06.325Z,-2.63
2019-01-21T20:12:08.811Z,-2.67
2019-01-21T20:17:11.281Z,-2.46
2019-01-21T20:22:13.758Z,-2.51
2019-01-21T20:27:16.268Z,-2.68
2019-01-21T20:32:18.738Z,-2.76
2019-01-21T20:37:21.205Z,-2.73
2019-01-21T20:42:23.697Z,-2.75
2019-01-21T20:47:26.140Z,-2.64
2019-01-21T20:52:28.613Z,-2.70
2019-01-21T20:57:31.089Z,-2.85
2019-01-21T21:02:33.578Z,-2.89
2019-01-21T21:07:36.175Z,-2.89
2019-01-21T21:12:39.726Z,-3.13
2019-01-21T21:17:42.210Z,-3.09
2019-01-21T21:22:44.677Z,-2.99
2019-01-21T21:27:47.283Z,-2.83
2019-01-21T21:32:49.751Z,-2.78
2019-01-21T21:37:52.215Z,-2.86
2019-01-21T21:42:54.707Z,-2.61
2019-01-21T21:48:00.920Z,-2.52
2019-01-21T21:52:59.634Z,-2.43
2019-01-21T21:58:02.103Z,-2.40
2019-01-21T22:03:04.569Z,-2.29
2019-01-21T22:08:07.055Z,-2.30
2019-01-21T22:13:09.539Z,-2.28
2019-01-21T22:18:12.024Z,-2.32
2019-01-21T22:23:14.485Z,-2.30
2019-01-21T22:28:16.965Z,-2.34
2019-01-21T22:33:19.491Z,-2.30
2019-01-21T22:38:21.963Z,-2.30
2019-01-21T22:43:24.477Z,-2.25
2019-01-21T22:48:26.907Z,-2.27
2019-01-21T22:53:29.372Z,-2.39
2019-01-21T22:58:31.848Z,-2.42
2019-01-21T23:03:34.317Z,-2.55
2019-01-21T23:08:36.775Z,-2.52
2019-01-21T23:13:39.237Z,-2.62
2019-01-21T23:18:41.701Z,-2.80
2019-01-21T23:23:44.164Z,-2.97
2019-01-21T23:28:46.624Z,-3.04
2019-01-21T23:33:49.093Z,-3.10
2019-01-21T23:38:51.555Z,-3.33
2019-01-21T23:43:54.009Z,-3.44
2019-01-21T23:48:56.476Z,-3.23
2019-01-21T23:53:59.013Z,-3.24
2019-01-21T23:59:01.495Z,-3.34
